MST,Max TemperatureF,Mean TemperatureF,Min TemperatureF,Max Dew PointF,MeanDew PointF,Min DewpointF,Max Humidity, Mean Humidity, Min Humidity, Max Sea Level PressureIn, Mean Sea Level PressureIn, Min Sea Level PressureIn, Max VisibilityMiles, Mean VisibilityMiles, Min VisibilityMiles, Max Wind SpeedMPH, Mean Wind SpeedMPH, Max Gust SpeedMPH,PrecipitationIn, CloudCover, Events, WindDirDegrees
2012-12-1,57,46,36,22,19,18,57,38,21,30.11,30.03,29.92,10,10,10,39,19,48,0.00,0,,290
2012-12-2,60,46,32,21,13,3,56,32,11,30.11,30.01,29.87,10,10,10,29,17,33,0.00,0,,277
2012-12-3,55,46,37,28,23,13,60,42,27,30.15,29.99,29.82,10,10,10,34,21,41,0.00,0,,302
2012-12-4,52,41,30,26,18,7,64,44,18,30.37,30.28,30.15,10,10,10,20,7,21,0.00,0,,278
2012-12-5,61,48,35,19,16,12,44,32,20,30.25,30.09,29.90,10,10,10,25,18,30,0.00,0,,291
2012-12-6,57,45,33,19,17,16,50,35,22,29.96,29.88,29.81,10,10,10,21,15,20,0.00,1,,273
2012-12-7,54,43,28,25,21,18,67,45,30,29.89,29.83,29.74,10,10,10,30,15,38,0.00,0,,286
2012-12-8,51,39,27,24,18,10,75,47,27,29.90,29.82,29.74,10,10,10,31,17,40,0.00,0,,278
2012-12-9,34,18,1,20,12,-2,93,72,35,30.27,29.99,29.75,10,5,0,24,15,121,0.28,5,Fog-Snow,80
2012-12-10,25,12,-2,9,1,-8,85,67,45,30.22,30.05,29.92,10,4,0,37,15,44,0.07,1,Fog-Snow,291
2012-12-11,30,20,9,13,8,2,77,59,45,30.20,30.13,30.08,10,10,10,21,11,,0.00,0,,293
2012-12-12,42,30,19,20,11,7,62,51,37,30.21,30.11,30.04,10,10,10,26,19,,0.00,0,,286
2012-12-13,48,36,23,21,14,7,57,45,31,30.19,30.06,29.89,10,10,10,17,12,,0.00,0,,244
2012-12-14,39,34,28,32,26,19,93,80,45,29.90,29.76,29.61,10,4,0,39,13,48,0.27,7,Fog-Snow,230
2012-12-15,35,29,23,28,23,17,93,79,61,29.94,29.87,29.80,10,6,0,37,27,45,0.00,4,Fog-Snow,268
2012-12-16,30,26,21,27,20,14,93,78,67,30.04,29.88,29.80,10,8,2,34,23,40,0.00,4,Snow,291
2012-12-17,35,27,19,23,17,13,81,72,59,30.07,30.02,29.96,10,10,10,36,25,44,0.00,0,,302
2012-12-18,37,29,21,27,23,17,89,73,62,29.98,29.86,29.66,10,10,10,26,18,32,0.00,0,,284
2012-12-19,36,24,12,30,19,4,93,72,59,30.26,29.70,29.49,10,4,0,45,29,54,0.03,5,Fog-Snow,278
2012-12-20,27,18,9,9,3,-1,70,54,40,30.57,30.47,30.29,10,10,10,29,21,,0.01,0,,300
2012-12-21,44,31,18,13,4,-4,57,37,19,30.46,30.34,30.20,10,10,10,15,12,,0.00,0,,298
2012-12-22,39,28,18,19,10,2,63,48,32,30.30,30.18,30.08,10,10,10,24,15,,0.00,0,,305
2012-12-23,43,34,24,21,17,14,69,55,31,30.13,30.08,30.02,10,10,10,24,19,32,0.00,0,,295
2012-12-24,43,35,27,28,21,14,93,65,34,29.99,29.76,29.59,10,9,0,36,16,46,0.01,4,Fog-Snow,267
2012-12-25,34,24,15,22,17,11,84,72,48,30.16,29.94,29.60,10,10,10,25,15,34,0.00,4,,333
2012-12-26,37,26,15,18,15,11,84,65,46,30.09,29.92,29.75,10,10,10,28,13,33,0.00,0,,251
2012-12-27,33,25,17,16,14,10,77,64,46,29.87,29.77,29.68,10,10,10,23,18,29,0.01,0,,283
2012-12-28,30,21,12,15,10,6,92,70,46,30.24,30.04,29.86,10,10,10,26,14,32,0.00,1,,299
2012-12-29,36,22,8,10,5,-2,81,52,23,30.37,30.27,30.13,10,10,10,16,11,,0.00,0,,220
2012-12-30,37,28,19,27,17,8,92,59,41,30.11,29.97,29.83,10,10,10,20,8,,0.00,5,,215
2012-12-31,30,24,17,27,21,11,93,83,51,30.02,29.83,29.74,10,6,0,26,14,36,0.08,6,Fog-Snow,231